createdAt,value
2023-03-20T00:01:17.562Z,39.60
2023-03-20T00:03:46.200Z,42.10
2023-03-20T00:06:21.976Z,41.10
2023-03-20T00:08:52.756Z,39.60
2023-03-20T00:11:49.981Z,41.90
2023-03-20T00:14:20.704Z,40.50
2023-03-20T00:16:49.517Z,39.70
2023-03-20T00:19:25.674Z,41.40
2023-03-20T00:21:55.109Z,39.80
2023-03-20T00:24:23.686Z,40.20
2023-03-20T00:27:12.929Z,44.80
2023-03-20T00:29:42.850Z,43.00
2023-03-20T00:32:13.318Z,43.40
2023-03-20T00:34:43.812Z,40.90
2023-03-20T00:37:14.737Z,40.50
2023-03-20T00:39:46.812Z,45.60
2023-03-20T00:42:25.118Z,44.30
2023-03-20T00:47:52.294Z,43.30
2023-03-20T00:50:23.725Z,44.70
2023-03-20T00:52:52.427Z,45.30
2023-03-20T00:55:22.051Z,47.20
2023-03-20T00:58:10.791Z,47.70
2023-03-20T01:00:42.195Z,45.80
2023-03-20T01:06:01.116Z,45.50
2023-03-20T01:08:30.419Z,46.10
2023-03-20T01:10:59.210Z,45.30
2023-03-20T01:13:29.741Z,46.60
2023-03-20T01:15:58.952Z,43.80
2023-03-20T01:18:27.737Z,45.20
2023-03-20T01:20:57.126Z,39.70
2023-03-20T01:23:27.043Z,38.90
2023-03-20T01:25:57.670Z,37.20
2023-03-20T01:28:32.638Z,39.50
2023-03-20T01:31:01.086Z,37.00
2023-03-20T01:33:50.762Z,31.70
2023-03-20T01:36:22.240Z,39.60
2023-03-20T01:38:56.524Z,37.80
2023-03-20T01:41:26.753Z,39.30
2023-03-20T01:43:55.542Z,41.20
2023-03-20T01:46:28.750Z,41.20
2023-03-20T01:49:28.589Z,36.30
2023-03-20T01:52:02.265Z,37.70
2023-03-20T01:54:37.497Z,39.60
2023-03-20T01:57:20.591Z,39.70
2023-03-20T01:59:58.549Z,34.40
2023-03-20T02:02:32.351Z,34.60
2023-03-20T02:05:04.140Z,34.00
2023-03-20T02:07:33.447Z,34.50
2023-03-20T02:10:11.519Z,32.90
2023-03-20T02:12:57.795Z,27.70
2023-03-20T02:15:35.844Z,30.10
2023-03-20T02:18:14.221Z,27.90
2023-03-20T02:24:18.863Z,29.50
2023-03-20T02:27:20.522Z,30.90
2023-03-20T02:30:01.701Z,26.10
2023-03-20T02:32:56.237Z,28.80
2023-03-20T02:35:51.292Z,28.50
2023-03-20T02:38:35.667Z,30.40
2023-03-20T02:41:10.148Z,28.90
2023-03-20T02:43:49.099Z,29.20
2023-03-20T02:46:28.266Z,29.30
2023-03-20T02:49:11.162Z,27.40
2023-03-20T02:51:48.749Z,24.80
2023-03-20T02:54:27.264Z,36.90
2023-03-20T02:57:04.461Z,30.20
2023-03-20T02:59:52.081Z,26.70
2023-03-20T03:02:23.952Z,20.00
2023-03-20T03:05:01.798Z,24.20
2023-03-20T03:07:33.091Z,26.10
2023-03-20T03:10:08.446Z,23.70
2023-03-20T03:12:42.547Z,21.80
2023-03-20T03:15:15.849Z,25.10
2023-03-20T03:17:50.067Z,22.90
2023-03-20T03:20:32.776Z,21.80
2023-03-20T03:23:02.285Z,18.80
2023-03-20T03:25:40.591Z,19.80
2023-03-20T03:28:23.818Z,18.30
2023-03-20T03:30:53.818Z,23.30
2023-03-20T03:33:33.072Z,31.10
2023-03-20T03:36:27.765Z,28.80
2023-03-20T03:38:59.321Z,35.80
2023-03-20T03:41:50.739Z,32.30
2023-03-20T03:44:31.920Z,31.50
2023-03-20T03:47:08.695Z,32.20
2023-03-20T03:49:39.747Z,32.70
2023-03-20T03:52:14.223Z,29.80
2023-03-20T03:54:50.019Z,26.20
2023-03-20T03:57:37.133Z,29.00
2023-03-20T04:00:12.201Z,30.60
2023-03-20T04:02:44.338Z,31.80
2023-03-20T04:05:17.478Z,30.90
2023-03-20T04:07:47.926Z,34.50
2023-03-20T04:10:16.735Z,43.20
2023-03-20T04:12:55.475Z,40.70
2023-03-20T04:15:24.157Z,60.20
2023-03-20T04:17:52.641Z,79.10
2023-03-20T04:20:21.023Z,71.80
2023-03-20T04:22:51.355Z,65.10
2023-03-20T04:25:22.747Z,35.70
2023-03-20T04:27:54.656Z,37.40
2023-03-20T04:30:48.431Z,41.40
2023-03-20T04:33:24.695Z,44.60
2023-03-20T04:36:25.756Z,34.00
2023-03-20T04:38:57.517Z,55.20
2023-03-20T04:41:26.905Z,36.70
2023-03-20T04:43:58.257Z,38.20
2023-03-20T04:46:27.553Z,24.70
2023-03-20T04:48:56.241Z,34.30
2023-03-20T04:51:28.717Z,32.30
2023-03-20T04:53:57.403Z,30.90
2023-03-20T04:56:31.316Z,30.00
2023-03-20T04:59:19.975Z,23.90
2023-03-20T05:01:50.192Z,21.80
2023-03-20T05:04:19.623Z,15.30
2023-03-20T05:06:49.612Z,23.20
2023-03-20T05:09:20.552Z,19.30
2023-03-20T05:11:49.749Z,19.80
2023-03-20T05:14:44.239Z,21.60
2023-03-20T05:17:27.884Z,20.40
2023-03-20T05:20:15.537Z,22.50
2023-03-20T05:22:57.915Z,19.60
2023-03-20T05:25:55.705Z,18.70
2023-03-20T05:28:29.942Z,19.50
2023-03-20T05:31:17.441Z,18.00
2023-03-20T05:34:03.319Z,20.90
2023-03-20T05:36:57.802Z,19.70
2023-03-20T05:39:32.636Z,19.10
2023-03-20T05:42:17.945Z,18.90
2023-03-20T05:45:10.491Z,17.20
2023-03-20T05:47:57.575Z,20.60
2023-03-20T05:50:29.027Z,20.10
2023-03-20T05:53:08.669Z,15.00
2023-03-20T05:55:55.995Z,16.50
2023-03-20T05:58:47.526Z,17.00
2023-03-20T06:01:39.551Z,20.80
2023-03-20T06:04:28.102Z,18.30
2023-03-20T06:07:10.512Z,19.20
2023-03-20T06:09:41.144Z,19.40
2023-03-20T06:12:13.005Z,19.00
2023-03-20T06:14:41.793Z,17.10
2023-03-20T06:17:13.245Z,17.30
2023-03-20T06:19:45.003Z,17.00
2023-03-20T06:22:13.600Z,17.30
2023-03-20T06:24:46.677Z,16.70
2023-03-20T06:27:16.202Z,17.40
2023-03-20T06:29:48.359Z,18.80
2023-03-20T06:32:19.706Z,20.70
2023-03-20T06:34:50.126Z,19.00
2023-03-20T06:37:19.700Z,19.70
2023-03-20T06:39:48.423Z,23.70
2023-03-20T06:42:16.904Z,27.20
2023-03-20T06:44:45.801Z,32.50
2023-03-20T06:47:28.743Z,27.50
2023-03-20T06:52:27.321Z,26.00
2023-03-20T06:55:19.570Z,26.50
2023-03-20T06:57:47.989Z,27.40
2023-03-20T07:00:18.331Z,25.50
2023-03-20T07:02:47.568Z,26.80
2023-03-20T07:05:16.659Z,30.90
2023-03-20T07:07:45.457Z,32.40
2023-03-20T07:10:14.554Z,27.80
2023-03-20T07:12:48.790Z,28.20
2023-03-20T07:15:34.647Z,29.50
2023-03-20T07:18:03.463Z,33.30
2023-03-20T07:20:34.815Z,30.90
2023-03-20T07:23:03.696Z,28.60
2023-03-20T07:25:42.151Z,29.80
2023-03-20T07:28:14.690Z,30.50
2023-03-20T07:30:45.425Z,34.40
2023-03-20T07:33:17.491Z,33.10
2023-03-20T07:35:46.732Z,33.80
2023-03-20T07:38:15.583Z,33.10
2023-03-20T07:40:56.151Z,34.60
2023-03-20T07:43:25.661Z,36.70
2023-03-20T07:46:26.849Z,34.80
2023-03-20T07:48:56.926Z,34.80
2023-03-20T07:51:25.841Z,35.20
2023-03-20T07:53:54.402Z,35.50
2023-03-20T07:56:22.790Z,35.80
2023-03-20T08:01:21.386Z,37.10
2023-03-20T08:03:49.901Z,36.60
2023-03-20T08:06:29.515Z,34.40
2023-03-20T08:08:59.124Z,31.80
2023-03-20T08:11:28.638Z,25.10
2023-03-20T08:13:58.038Z,32.00
2023-03-20T08:16:26.474Z,33.10
2023-03-20T08:19:03.622Z,35.10
2023-03-20T08:21:32.711Z,34.80
2023-03-20T08:24:01.700Z,32.10
2023-03-20T08:26:32.029Z,32.10
2023-03-20T08:29:00.817Z,33.30
2023-03-20T08:31:31.861Z,35.00
2023-03-20T08:36:29.235Z,34.90
2023-03-20T08:38:57.621Z,32.20
2023-03-20T08:41:26.303Z,33.20
2023-03-20T08:43:54.638Z,32.10
2023-03-20T08:46:24.061Z,24.80
2023-03-20T08:48:52.875Z,31.80
2023-03-20T08:51:21.566Z,34.40
2023-03-20T08:53:50.152Z,30.90
2023-03-20T08:56:18.794Z,29.90
2023-03-20T08:58:48.236Z,28.40
2023-03-20T09:01:16.756Z,32.40
2023-03-20T09:03:45.725Z,26.70
2023-03-20T09:06:14.298Z,29.70
2023-03-20T09:08:42.989Z,30.00
2023-03-20T09:11:11.876Z,32.00
2023-03-20T09:13:41.382Z,30.70
2023-03-20T09:16:10.590Z,28.60
2023-03-20T09:18:41.111Z,31.30
2023-03-20T09:21:09.696Z,30.20
2023-03-20T09:23:38.077Z,28.20
2023-03-20T09:26:07.584Z,20.90
2023-03-20T09:28:36.577Z,26.30
2023-03-20T09:31:05.830Z,26.50
2023-03-20T09:33:34.674Z,26.60
2023-03-20T09:36:03.534Z,28.40
2023-03-20T09:38:32.656Z,29.00
2023-03-20T09:41:01.740Z,27.40
2023-03-20T09:43:48.370Z,30.80
2023-03-20T09:46:29.084Z,27.20
2023-03-20T09:49:29.774Z,29.70
2023-03-20T09:51:59.475Z,30.00
2023-03-20T09:54:50.995Z,29.20
2023-03-20T09:57:29.979Z,33.40
2023-03-20T10:00:01.795Z,32.60
2023-03-20T10:02:45.957Z,28.30
2023-03-20T10:05:23.337Z,32.10
2023-03-20T10:07:55.190Z,27.10
2023-03-20T10:10:48.658Z,21.10
2023-03-20T10:13:27.999Z,29.30
2023-03-20T10:16:02.282Z,29.80
2023-03-20T10:18:34.376Z,34.20
2023-03-20T10:21:19.060Z,26.70
2023-03-20T10:23:59.194Z,34.20
2023-03-20T10:26:27.674Z,29.60
2023-03-20T10:29:00.264Z,28.40
2023-03-20T10:31:43.882Z,30.70
2023-03-20T10:34:32.263Z,30.70
2023-03-20T10:37:39.738Z,28.90
2023-03-20T10:40:28.307Z,30.00
2023-03-20T10:42:59.768Z,29.50
2023-03-20T10:45:40.827Z,30.70
2023-03-20T10:48:39.611Z,29.40
2023-03-20T10:51:11.581Z,29.90
2023-03-20T10:53:48.659Z,29.00
2023-03-20T10:56:26.065Z,26.60
2023-03-20T10:58:58.630Z,28.40
2023-03-20T11:01:28.374Z,27.70
2023-03-20T11:03:57.482Z,28.80
2023-03-20T11:06:29.092Z,25.90
2023-03-20T11:08:58.604Z,29.40
2023-03-20T11:11:29.439Z,27.40
2023-03-20T11:13:58.948Z,28.40
2023-03-20T11:16:33.320Z,29.10
2023-03-20T11:19:09.011Z,26.20
2023-03-20T11:21:50.939Z,26.20
2023-03-20T11:24:29.944Z,25.90
2023-03-20T11:27:14.502Z,23.40
2023-03-20T11:29:45.848Z,24.80
2023-03-20T11:32:54.247Z,25.60
2023-03-20T11:35:26.751Z,25.20
2023-03-20T11:37:56.253Z,24.80
2023-03-20T11:40:31.991Z,24.90
2023-03-20T11:43:00.997Z,23.90
2023-03-20T11:45:37.412Z,27.30
2023-03-20T11:48:07.487Z,28.60
2023-03-20T11:50:37.866Z,24.60
2023-03-20T11:53:22.879Z,26.80
2023-03-20T11:56:12.384Z,25.00
2023-03-20T11:58:49.753Z,23.50
2023-03-20T12:01:18.437Z,24.40
2023-03-20T12:03:52.196Z,24.50
2023-03-20T12:06:22.791Z,24.00
2023-03-20T12:09:03.341Z,23.30
2023-03-20T12:11:49.848Z,24.20
2023-03-20T12:14:39.118Z,23.50
2023-03-20T12:17:28.391Z,22.80
2023-03-20T12:20:06.573Z,22.10
2023-03-20T12:22:43.194Z,22.50
2023-03-20T12:25:22.513Z,22.90
2023-03-20T12:27:58.227Z,24.90
2023-03-20T12:30:37.329Z,25.10
2023-03-20T12:33:12.594Z,26.00
2023-03-20T12:35:45.047Z,24.20
2023-03-20T12:38:25.616Z,23.60
2023-03-20T12:41:15.882Z,23.40
2023-03-20T12:43:56.038Z,22.20
2023-03-20T12:46:33.372Z,21.70
2023-03-20T12:49:04.884Z,20.50
2023-03-20T12:51:37.880Z,20.70
2023-03-20T12:54:56.138Z,22.10
2023-03-20T12:57:46.279Z,19.50
2023-03-20T13:00:17.386Z,19.20
2023-03-20T13:05:34.908Z,20.70
2023-03-20T13:08:18.550Z,20.40
2023-03-20T13:10:57.905Z,20.90
2023-03-20T13:16:14.693Z,20.50
2023-03-20T13:18:51.407Z,21.20
2023-03-20T13:21:25.241Z,22.80
2023-03-20T13:24:02.604Z,20.20
2023-03-20T13:26:41.534Z,21.50
2023-03-20T13:29:16.260Z,21.50
2023-03-20T13:31:54.167Z,20.50
2023-03-20T13:34:48.147Z,24.10
2023-03-20T13:37:23.993Z,21.90
2023-03-20T13:40:15.239Z,20.80
2023-03-20T13:43:02.649Z,21.40
2023-03-20T13:45:34.611Z,21.40
2023-03-20T13:48:37.810Z,23.10
2023-03-20T13:51:37.432Z,25.10
2023-03-20T13:54:30.922Z,20.90
2023-03-20T13:57:22.840Z,25.60
2023-03-20T14:00:00.146Z,26.00
2023-03-20T14:02:41.400Z,25.30
2023-03-20T14:05:16.951Z,25.20
2023-03-20T14:07:58.157Z,28.40
2023-03-20T14:10:27.025Z,23.80
2023-03-20T14:13:02.744Z,24.80
2023-03-20T14:15:36.197Z,26.30
2023-03-20T14:18:06.953Z,24.00
2023-03-20T14:20:44.210Z,26.00
2023-03-20T14:23:18.188Z,24.30
2023-03-20T14:25:46.803Z,23.30
2023-03-20T14:28:26.038Z,24.90
2023-03-20T14:31:37.873Z,25.30
2023-03-20T14:34:13.183Z,24.70
2023-03-20T14:37:01.851Z,26.50
2023-03-20T14:39:42.306Z,25.10
2023-03-20T14:42:20.106Z,23.70
2023-03-20T14:45:17.364Z,27.00
2023-03-20T14:47:50.558Z,24.80
2023-03-20T14:50:23.778Z,26.90
2023-03-20T14:53:08.210Z,23.20
2023-03-20T14:55:49.200Z,26.30
2023-03-20T14:58:53.520Z,29.60
2023-03-20T15:01:21.963Z,33.40
2023-03-20T15:04:09.731Z,34.20
2023-03-20T15:06:54.919Z,37.60
2023-03-20T15:09:24.008Z,38.20
2023-03-20T15:11:52.896Z,46.90
2023-03-20T15:14:26.643Z,33.60
2023-03-20T15:16:59.505Z,44.10
2023-03-20T15:19:28.548Z,36.30
2023-03-20T15:21:57.481Z,44.20
2023-03-20T15:24:30.276Z,45.80
2023-03-20T15:27:00.754Z,45.00
2023-03-20T15:29:29.907Z,50.30
2023-03-20T15:32:12.972Z,53.50
2023-03-20T15:34:43.263Z,46.80
2023-03-20T15:37:16.902Z,32.40
2023-03-20T15:39:52.116Z,47.00
2023-03-20T15:42:22.031Z,45.50
2023-03-20T15:44:52.450Z,41.40
2023-03-20T15:47:22.589Z,40.20
2023-03-20T15:49:58.692Z,42.10
2023-03-20T15:52:43.876Z,55.70
2023-03-20T15:55:16.697Z,51.60
2023-03-20T15:57:47.560Z,49.40
2023-03-20T16:02:48.713Z,45.30
2023-03-20T16:05:18.101Z,41.80
2023-03-20T16:07:47.709Z,41.40
2023-03-20T16:10:21.729Z,39.60
2023-03-20T16:12:54.921Z,45.20
2023-03-20T16:15:27.929Z,42.50
2023-03-20T16:17:58.133Z,80.50
2023-03-20T16:20:29.482Z,67.80
2023-03-20T16:23:02.071Z,62.80
2023-03-20T16:25:31.078Z,77.70
2023-03-20T16:27:59.436Z,74.80
2023-03-20T16:30:31.207Z,68.90
2023-03-20T16:33:02.046Z,97.20
2023-03-20T16:35:38.842Z,124.70
2023-03-20T16:38:36.496Z,79.30
2023-03-20T16:41:16.682Z,42.30
2023-03-20T16:43:51.555Z,37.60
2023-03-20T16:46:24.524Z,39.50
2023-03-20T16:48:57.037Z,37.20
2023-03-20T16:51:29.788Z,37.50
2023-03-20T16:54:01.596Z,40.90
2023-03-20T16:56:30.080Z,58.60
2023-03-20T16:58:58.549Z,62.50
2023-03-20T17:01:28.344Z,57.00
2023-03-20T17:06:45.095Z,55.40
2023-03-20T17:09:21.358Z,48.10
2023-03-20T17:11:51.796Z,44.10
2023-03-20T17:14:22.234Z,41.20
2023-03-20T17:16:53.683Z,36.20
2023-03-20T17:19:22.807Z,36.20
2023-03-20T17:21:51.389Z,35.60
2023-03-20T17:24:20.148Z,35.70
2023-03-20T17:26:56.002Z,35.00
2023-03-20T17:29:24.493Z,34.70
2023-03-20T17:31:53.156Z,33.60
2023-03-20T17:34:21.451Z,34.00
2023-03-20T17:36:50.035Z,33.50
2023-03-20T17:39:20.527Z,39.10
2023-03-20T17:41:49.047Z,35.30
2023-03-20T17:44:17.533Z,33.80
2023-03-20T17:47:05.982Z,35.20
2023-03-20T17:49:34.672Z,37.30
2023-03-20T17:52:03.256Z,38.20
2023-03-20T17:54:33.277Z,38.30
2023-03-20T17:57:02.515Z,37.00
2023-03-20T17:59:31.672Z,34.40
2023-03-20T18:02:00.137Z,31.50
2023-03-20T18:04:28.846Z,29.70
2023-03-20T18:06:58.144Z,36.30
2023-03-20T18:09:30.621Z,36.50
2023-03-20T18:11:59.513Z,38.20
2023-03-20T18:14:31.168Z,42.60
2023-03-20T18:16:59.653Z,41.80
2023-03-20T18:19:29.265Z,41.40
2023-03-20T18:21:57.649Z,46.20
2023-03-20T18:24:27.064Z,46.80
2023-03-20T18:26:59.943Z,44.70
2023-03-20T18:29:28.531Z,45.40
2023-03-20T18:31:56.897Z,41.40
2023-03-20T18:34:27.532Z,38.90
2023-03-20T18:36:56.728Z,34.00
2023-03-20T18:39:29.407Z,37.40
2023-03-20T18:41:58.405Z,43.10
2023-03-20T18:44:27.190Z,45.10
2023-03-20T18:46:55.547Z,43.70
2023-03-20T18:49:24.462Z,45.60
2023-03-20T18:51:54.292Z,49.50
2023-03-20T18:54:23.371Z,52.00
2023-03-20T18:57:00.076Z,51.60
2023-03-20T18:59:29.666Z,52.50
2023-03-20T19:01:58.090Z,54.30
2023-03-20T19:04:27.368Z,57.60
2023-03-20T19:06:57.561Z,62.80
2023-03-20T19:09:26.870Z,55.80
2023-03-20T19:11:55.557Z,55.70
2023-03-20T19:14:26.085Z,52.60
2023-03-20T19:16:58.766Z,55.40
2023-03-20T19:19:30.826Z,50.70
2023-03-20T19:21:59.203Z,45.40
2023-03-20T19:24:34.456Z,48.20
2023-03-20T19:27:03.032Z,45.30
2023-03-20T19:29:31.618Z,48.00
2023-03-20T19:32:00.185Z,48.00
2023-03-20T19:35:10.948Z,45.80
2023-03-20T19:37:17.744Z,47.10
2023-03-20T19:39:46.327Z,45.00
2023-03-20T19:42:46.974Z,51.90
2023-03-20T19:45:23.916Z,48.00
2023-03-20T19:50:26.953Z,49.90
2023-03-20T19:52:56.869Z,52.70
2023-03-20T19:57:56.814Z,54.80
2023-03-20T20:03:21.329Z,56.00
2023-03-20T20:05:51.179Z,55.60
2023-03-20T20:08:30.635Z,58.00
2023-03-20T20:11:12.155Z,58.50
2023-03-20T20:14:03.646Z,62.30
2023-03-20T20:16:30.966Z,56.00
2023-03-20T20:19:04.138Z,56.10
2023-03-20T20:24:23.349Z,63.00
2023-03-20T20:27:15.240Z,68.40
2023-03-20T20:29:49.452Z,66.50
2023-03-20T20:32:24.495Z,67.00
2023-03-20T20:40:32.973Z,69.60
2023-03-20T20:43:02.928Z,65.60
2023-03-20T20:45:43.875Z,68.50
2023-03-20T20:48:13.032Z,70.10
2023-03-20T20:50:43.596Z,74.10
2023-03-20T20:53:14.100Z,76.80
2023-03-20T20:55:43.096Z,71.10
2023-03-20T20:58:12.494Z,69.80
2023-03-20T21:00:51.799Z,63.60
2023-03-20T21:03:22.397Z,68.40
2023-03-20T21:05:52.799Z,68.00
2023-03-20T21:08:21.918Z,70.70
2023-03-20T21:10:55.608Z,71.70
2023-03-20T21:13:24.280Z,69.80
2023-03-20T21:15:59.604Z,69.80
2023-03-20T21:18:29.845Z,71.20
2023-03-20T21:21:10.206Z,68.10
2023-03-20T21:23:38.999Z,68.00
2023-03-20T21:26:11.398Z,66.40
2023-03-20T21:28:40.368Z,66.20
2023-03-20T21:31:24.197Z,73.60
2023-03-20T21:33:55.369Z,68.80
2023-03-20T21:36:24.047Z,63.10
2023-03-20T21:39:07.275Z,61.10
2023-03-20T21:41:38.063Z,67.50
2023-03-20T21:44:07.677Z,68.20
2023-03-20T21:50:23.167Z,63.10
2023-03-20T21:55:48.278Z,64.90
2023-03-20T21:58:36.869Z,64.10
2023-03-20T22:01:29.385Z,63.70
2023-03-20T22:04:22.151Z,60.00
2023-03-20T22:07:17.858Z,54.20
2023-03-20T22:12:52.837Z,59.60
2023-03-20T22:21:27.400Z,51.50
2023-03-20T22:35:37.961Z,57.30
2023-03-20T22:46:19.571Z,56.00
2023-03-20T22:48:51.616Z,45.20
2023-03-20T22:51:28.632Z,54.40
2023-03-20T22:54:03.126Z,59.30
2023-03-20T22:56:32.934Z,58.80
2023-03-20T22:59:01.725Z,53.70
2023-03-20T23:01:30.973Z,50.30
2023-03-20T23:03:59.332Z,54.10
2023-03-20T23:06:35.571Z,57.70
2023-03-20T23:09:14.403Z,49.70
2023-03-20T23:11:44.108Z,63.60
2023-03-20T23:14:24.956Z,55.60
2023-03-20T23:16:56.596Z,52.40
2023-03-20T23:19:26.511Z,51.30
2023-03-20T23:21:56.779Z,53.30
2023-03-20T23:24:25.165Z,54.60
2023-03-20T23:26:58.664Z,54.80
2023-03-20T23:29:27.043Z,55.10
2023-03-20T23:31:55.761Z,53.20
2023-03-20T23:34:29.026Z,56.10
2023-03-20T23:36:57.461Z,53.40
2023-03-20T23:39:26.196Z,54.90
2023-03-20T23:42:12.176Z,55.40
2023-03-20T23:44:49.904Z,60.10
2023-03-20T23:47:27.646Z,60.90
2023-03-20T23:49:58.479Z,60.70
2023-03-20T23:52:27.525Z,63.40
2023-03-20T23:54:56.417Z,59.60
2023-03-20T23:57:24.798Z,69.60
2023-03-20T23:59:53.389Z,64.30
